Time;durP1;ratioP1;P1;durP2;ratioP2;P2;SDS_P1;SDS_P2;PMS_P1;PMS_P2;Temp;Humidity;BMP_temperature;BMP_pressure;BME280_temperature;BME280_humidity;BME280_pressure;Samples;Min_cycle;Max_cycle;Signal;HPM_P1;HPM_P2
2023/05/29 00:00:47;;;;;;;11.63;4.88;;;13.80;99.90;;;;;;5072719;28;20032;-86
2023/05/29 00:03:13;;;;;;;6.35;4.13;;;13.80;99.90;;;;;;5056692;28;20086;-86
2023/05/29 00:05:39;;;;;;;14.18;5.05;;;13.80;99.90;;;;;;5073384;28;20036;-86
2023/05/29 00:08:06;;;;;;;11.65;4.03;;;13.70;99.90;;;;;;5073932;28;20376;-86
2023/05/29 00:10:32;;;;;;;12.50;5.05;;;13.80;99.90;;;;;;5056638;28;20063;-86
2023/05/29 00:12:58;;;;;;;12.65;4.53;;;13.70;99.90;;;;;;5072859;28;20480;-85
2023/05/29 00:15:23;;;;;;;9.00;4.18;;;13.60;99.90;;;;;;5056663;28;20120;-86
2023/05/29 00:17:49;;;;;;;10.63;4.60;;;13.60;99.90;;;;;;5056795;28;20037;-87
2023/05/29 00:20:15;;;;;;;10.15;4.57;;;13.50;99.90;;;;;;5073275;28;20503;-86
2023/05/29 00:22:41;;;;;;;16.13;6.30;;;13.50;99.90;;;;;;5056111;28;20028;-85
2023/05/29 00:25:08;;;;;;;12.13;4.07;;;13.50;99.90;;;;;;5072906;28;20487;-86
2023/05/29 00:27:34;;;;;;;9.75;4.15;;;13.40;99.90;;;;;;5074206;28;20020;-86
2023/05/29 00:30:01;;;;;;;9.32;4.28;;;13.30;99.90;;;;;;5107128;28;20036;-86
2023/05/29 00:32:27;;;;;;;9.15;4.40;;;13.30;99.90;;;;;;5056450;28;20024;-86
2023/05/29 00:34:53;;;;;;;13.35;4.88;;;13.20;99.90;;;;;;5073115;28;20090;-86
2023/05/29 00:37:21;;;;;;;8.85;4.40;;;13.10;99.90;;;;;;5055529;28;20029;-86
2023/05/29 00:39:47;;;;;;;7.97;3.88;;;13.10;99.90;;;;;;5074306;28;20086;-86
2023/05/29 00:42:13;;;;;;;6.80;4.50;;;13.00;99.90;;;;;;5072550;28;20039;-87
2023/05/29 00:44:39;;;;;;;10.18;4.28;;;13.10;99.90;;;;;;5056028;28;20127;-86
2023/05/29 00:47:05;;;;;;;14.30;3.72;;;13.00;99.90;;;;;;5055947;28;20020;-86
2023/05/29 00:49:33;;;;;;;8.63;3.88;;;13.00;99.90;;;;;;5056419;28;20021;-86
2023/05/29 00:51:58;;;;;;;8.65;4.20;;;13.00;99.90;;;;;;5056370;28;20495;-86
2023/05/29 00:54:28;;;;;;;9.43;3.97;;;13.00;99.90;;;;;;5056108;28;20025;-86
2023/05/29 00:56:56;;;;;;;10.25;4.03;;;12.90;99.90;;;;;;5055806;28;20068;-86
2023/05/29 00:59:23;;;;;;;14.45;4.55;;;12.90;99.90;;;;;;5072630;28;20028;-86
2023/05/29 01:01:50;;;;;;;9.43;4.22;;;12.90;99.90;;;;;;5056105;28;20037;-86
2023/05/29 01:04:17;;;;;;;9.35;4.13;;;12.90;99.90;;;;;;5072554;28;20506;-86
2023/05/29 01:06:43;;;;;;;7.90;4.22;;;12.90;99.90;;;;;;5055429;28;20035;-86
2023/05/29 01:09:10;;;;;;;11.73;4.65;;;12.90;99.90;;;;;;5056060;28;20495;-86
2023/05/29 01:11:51;;;;;;;10.00;4.15;;;12.80;99.90;;;;;;5055933;28;20479;-86
2023/05/29 01:14:32;;;;;;;12.10;4.40;;;12.80;99.90;;;;;;5056006;28;20419;-85
2023/05/29 01:17:17;;;;;;;;;;;12.80;99.90;;;;;;5083479;28;20041;-86
2023/05/29 01:19:55;;;;;;;9.02;4.72;;;12.80;99.90;;;;;;5072011;28;19908;-86
2023/05/29 01:22:35;;;;;;;13.27;4.60;;;12.80;99.90;;;;;;5055899;28;20032;-85
2023/05/29 01:25:18;;;;;;;11.38;4.30;;;12.80;99.90;;;;;;5100316;28;20071;-86
2023/05/29 01:27:47;;;;;;;8.27;4.20;;;12.80;99.90;;;;;;5072384;28;20024;-85
2023/05/29 01:30:15;;;;;;;9.40;4.65;;;12.70;99.90;;;;;;5056210;28;20068;-86
2023/05/29 01:32:41;;;;;;;9.23;4.05;;;12.50;99.90;;;;;;5055429;28;20021;-86
2023/05/29 01:35:08;;;;;;;9.52;4.60;;;12.60;99.90;;;;;;5073869;28;20028;-86
2023/05/29 01:37:42;;;;;;;9.90;4.25;;;12.50;99.90;;;;;;5054845;28;20480;-86
2023/05/29 01:40:09;;;;;;;12.98;3.90;;;12.40;99.90;;;;;;5054812;28;20029;-85
2023/05/29 01:42:35;;;;;;;11.25;4.40;;;12.30;99.90;;;;;;5055434;28;20043;-86
2023/05/29 01:45:03;;;;;;;8.23;4.45;;;12.20;99.90;;;;;;5055174;28;20024;-86
2023/05/29 01:47:29;;;;;;;10.88;4.55;;;12.10;99.90;;;;;;5055420;28;20137;-85
2023/05/29 01:49:56;;;;;;;10.27;4.60;;;12.00;99.90;;;;;;5055436;28;20060;-86
2023/05/29 01:52:22;;;;;;;14.25;4.55;;;12.10;99.90;;;;;;5066931;28;20412;-86
2023/05/29 01:54:47;;;;;;;13.18;3.97;;;12.00;99.90;;;;;;5072290;28;20058;-85
2023/05/29 01:57:13;;;;;;;13.13;4.65;;;11.90;99.90;;;;;;5054938;28;20693;-86
2023/05/29 01:59:41;;;;;;;10.82;4.03;;;11.80;99.90;;;;;;5055263;28;20392;-86
2023/05/29 02:02:11;;;;;;;7.90;4.30;;;11.80;99.90;;;;;;5055158;28;20054;-85
2023/05/29 02:04:49;;;;;;;9.95;4.20;;;11.70;99.90;;;;;;5055652;28;20082;-85
2023/05/29 02:07:15;;;;;;;8.07;4.30;;;11.70;99.90;;;;;;5054924;28;20025;-86
2023/05/29 02:09:41;;;;;;;17.27;4.63;;;11.70;99.90;;;;;;5058780;28;20479;-85
2023/05/29 02:12:07;;;;;;;8.05;4.45;;;11.60;99.90;;;;;;5059185;28;20021;-85
2023/05/29 02:14:33;;;;;;;13.63;4.13;;;11.60;99.90;;;;;;5058616;28;20471;-85
2023/05/29 02:17:01;;;;;;;10.30;4.60;;;11.50;99.90;;;;;;5059317;28;20035;-85
2023/05/29 02:19:27;;;;;;;14.88;4.80;;;11.40;99.90;;;;;;5057756;28;20025;-85
2023/05/29 02:21:54;;;;;;;10.63;4.32;;;11.30;99.90;;;;;;5058854;28;20037;-86
2023/05/29 02:24:20;;;;;;;12.48;4.90;;;11.30;99.90;;;;;;5059937;28;20390;-86
2023/05/29 02:26:48;;;;;;;9.48;4.82;;;11.30;99.90;;;;;;5076482;28;20412;-85
2023/05/29 02:29:14;;;;;;;8.52;4.57;;;11.20;99.90;;;;;;5059312;28;20575;-85
2023/05/29 02:31:39;;;;;;;9.20;4.18;;;11.10;99.90;;;;;;5058632;28;20036;-86
2023/05/29 02:34:05;;;;;;;13.40;4.60;;;11.10;99.90;;;;;;5075427;28;20111;-85
2023/05/29 02:36:31;;;;;;;12.57;4.18;;;11.10;99.90;;;;;;5058530;28;20097;-85
2023/05/29 02:38:57;;;;;;;9.40;4.30;;;11.20;99.90;;;;;;5074978;28;20024;-86
2023/05/29 02:41:23;;;;;;;14.18;4.25;;;11.10;99.90;;;;;;5075141;28;20035;-85
2023/05/29 02:43:50;;;;;;;11.52;4.40;;;11.20;99.90;;;;;;5058565;28;20073;-85
2023/05/29 02:46:15;;;;;;;14.27;4.82;;;11.10;99.90;;;;;;5058775;28;20020;-85
2023/05/29 02:48:41;;;;;;;15.65;4.95;;;11.20;99.90;;;;;;5058177;28;20041;-86
2023/05/29 02:51:07;;;;;;;9.25;4.20;;;11.30;99.90;;;;;;5074327;28;20025;-86
2023/05/29 02:53:32;;;;;;;9.73;4.10;;;11.30;99.90;;;;;;5057999;28;20021;-86
2023/05/29 02:55:58;;;;;;;11.60;4.65;;;11.20;99.90;;;;;;5074027;28;20073;-86
2023/05/29 02:58:24;;;;;;;11.23;4.80;;;11.20;99.90;;;;;;5057770;28;20024;-86
2023/05/29 03:00:50;;;;;;;8.55;5.03;;;11.10;99.90;;;;;;5058489;28;20029;-86
2023/05/29 03:03:15;;;;;;;9.27;4.28;;;11.10;99.90;;;;;;5057837;28;20032;-85
2023/05/29 03:05:41;;;;;;;6.18;3.95;;;11.20;99.90;;;;;;5057646;28;20464;-85
2023/05/29 03:08:07;;;;;;;9.45;4.32;;;11.10;99.90;;;;;;5057582;28;20024;-86
2023/05/29 03:10:32;;;;;;;14.95;4.88;;;11.10;99.90;;;;;;5057942;28;20021;-85
2023/05/29 03:12:58;;;;;;;10.63;4.63;;;11.00;99.90;;;;;;5057567;28;20716;-85
2023/05/29 03:15:24;;;;;;;13.32;5.10;;;11.00;99.90;;;;;;5057967;28;20436;-86
2023/05/29 03:17:50;;;;;;;12.85;4.70;;;10.90;99.90;;;;;;5107186;28;20025;-85
2023/05/29 03:20:20;;;;;;;9.52;4.20;;;10.90;99.90;;;;;;5108571;28;20095;-86
2023/05/29 03:22:47;;;;;;;9.60;4.28;;;10.90;99.90;;;;;;5057988;28;20024;-85
2023/05/29 03:25:13;;;;;;;9.38;4.65;;;10.90;99.90;;;;;;5057582;28;20028;-85
2023/05/29 03:27:39;;;;;;;9.52;4.45;;;11.00;99.90;;;;;;5071680;28;20029;-88
2023/05/29 03:30:10;;;;;;;22.83;5.97;;;11.00;99.90;;;;;;5067421;28;20396;-89
2023/05/29 03:32:37;;;;;;;12.63;4.53;;;11.00;99.90;;;;;;5071075;28;20031;-89
2023/05/29 03:35:03;;;;;;;10.27;4.60;;;11.00;99.90;;;;;;5074736;28;20376;-88
2023/05/29 03:37:30;;;;;;;11.07;4.55;;;11.10;99.90;;;;;;5058147;28;20027;-88
2023/05/29 03:39:56;;;;;;;12.23;4.70;;;11.20;99.90;;;;;;5058076;28;20029;-89
2023/05/29 03:42:22;;;;;;;7.97;4.40;;;11.30;99.90;;;;;;5058451;28;20024;-88
2023/05/29 03:44:50;;;;;;;8.40;4.65;;;11.40;99.90;;;;;;5074172;28;20033;-89
2023/05/29 03:47:15;;;;;;;7.70;4.47;;;11.50;99.90;;;;;;5074908;28;20074;-89
2023/05/29 03:49:41;;;;;;;10.82;4.60;;;11.40;99.90;;;;;;5056633;28;20080;-88
2023/05/29 03:52:07;;;;;;;12.65;4.50;;;11.50;99.90;;;;;;5058100;28;20023;-89
2023/05/29 03:54:33;;;;;;;7.30;4.05;;;11.50;99.90;;;;;;5057449;28;20025;-88
2023/05/29 03:57:01;;;;;;;8.73;4.68;;;11.40;99.90;;;;;;5058129;28;20603;-89
2023/05/29 03:59:27;;;;;;;11.57;4.22;;;11.60;99.90;;;;;;5057842;28;20036;-89
2023/05/29 04:01:53;;;;;;;12.05;4.70;;;11.60;99.90;;;;;;5057688;28;20605;-89
2023/05/29 04:04:19;;;;;;;8.95;4.15;;;11.70;99.90;;;;;;5057487;28;20047;-89
2023/05/29 04:06:45;;;;;;;9.00;4.20;;;11.80;99.90;;;;;;5057591;28;20024;-89
2023/05/29 04:09:11;;;;;;;8.32;4.03;;;11.80;99.90;;;;;;5058341;28;20033;-89
2023/05/29 04:11:38;;;;;;;14.95;5.32;;;11.90;99.90;;;;;;5075176;28;20016;-89
2023/05/29 04:14:04;;;;;;;12.90;4.43;;;11.90;99.90;;;;;;5076849;28;20017;-88
2023/05/29 04:16:30;;;;;;;12.65;5.03;;;11.90;99.90;;;;;;5075698;28;20376;-88
2023/05/29 04:18:55;;;;;;;15.68;4.45;;;12.00;99.90;;;;;;5061487;28;20029;-88
2023/05/29 04:21:24;;;;;;;8.85;4.82;;;12.10;99.90;;;;;;5060902;28;20021;-89
2023/05/29 04:23:52;;;;;;;10.85;4.85;;;12.10;99.90;;;;;;5059217;28;20078;-88
2023/05/29 04:26:24;;;;;;;8.48;4.47;;;12.10;99.90;;;;;;5057955;28;20430;-88
2023/05/29 04:28:56;;;;;;;13.75;5.03;;;12.10;99.90;;;;;;5058087;28;20040;-88
2023/05/29 04:31:26;;;;;;;9.70;4.63;;;12.20;99.90;;;;;;5054718;28;20048;-88
2023/05/29 04:33:56;;;;;;;10.55;4.60;;;12.30;99.90;;;;;;5058250;28;20024;-88
2023/05/29 04:36:25;;;;;;;8.52;4.43;;;12.40;99.90;;;;;;5054966;28;20058;-88
2023/05/29 04:38:53;;;;;;;9.05;4.93;;;12.60;99.90;;;;;;5058861;28;20116;-89
2023/05/29 04:41:23;;;;;;;13.55;4.43;;;12.60;99.90;;;;;;5058565;28;20476;-88
2023/05/29 04:43:55;;;;;;;10.15;5.45;;;12.70;99.90;;;;;;5057644;28;21157;-88
2023/05/29 04:46:20;;;;;;;13.27;4.85;;;12.80;99.90;;;;;;5074127;28;20080;-88
2023/05/29 04:48:47;;;;;;;15.90;4.40;;;12.90;99.90;;;;;;5056868;28;20060;-88
2023/05/29 04:51:13;;;;;;;8.18;4.50;;;12.90;99.90;;;;;;5057150;28;20471;-88
2023/05/29 04:53:40;;;;;;;13.50;4.22;;;12.90;99.90;;;;;;5056999;28;20025;-88
2023/05/29 04:56:07;;;;;;;11.10;4.75;;;13.00;99.90;;;;;;5061838;28;20088;-87
2023/05/29 04:58:34;;;;;;;11.88;5.47;;;13.00;99.90;;;;;;5074300;28;20029;-88
2023/05/29 05:01:00;;;;;;;10.93;4.22;;;13.10;99.90;;;;;;5057445;28;20074;-88
2023/05/29 05:03:33;;;;;;;11.23;4.93;;;13.10;99.90;;;;;;5058095;28;20032;-89
2023/05/29 05:06:02;;;;;;;11.85;4.70;;;13.20;99.90;;;;;;5074204;28;20534;-88
2023/05/29 05:08:32;;;;;;;10.77;4.03;;;13.20;99.90;;;;;;5057462;28;20044;-88
2023/05/29 05:11:00;;;;;;;11.77;4.80;;;13.30;99.90;;;;;;5077700;28;20052;-88
2023/05/29 05:13:26;;;;;;;8.35;4.65;;;13.30;99.90;;;;;;5058531;28;20052;-88
2023/05/29 05:15:53;;;;;;;13.25;5.43;;;13.40;99.90;;;;;;5058120;28;20067;-87
2023/05/29 05:18:19;;;;;;;10.93;4.80;;;13.50;99.90;;;;;;5058150;28;20107;-87
2023/05/29 05:20:54;;;;;;;15.15;4.50;;;13.60;99.90;;;;;;5059601;28;20472;-88
2023/05/29 05:23:20;;;;;;;12.40;4.28;;;13.70;99.90;;;;;;5056969;28;20051;-88
2023/05/29 05:25:47;;;;;;;10.68;4.55;;;13.70;99.90;;;;;;5108902;28;20122;-88
2023/05/29 05:28:13;;;;;;;7.32;3.70;;;13.80;99.90;;;;;;5057008;28;20472;-88
2023/05/29 05:30:38;;;;;;;8.68;4.18;;;13.90;99.90;;;;;;5075142;28;20031;-88
2023/05/29 05:33:04;;;;;;;10.13;4.40;;;13.90;99.90;;;;;;5057988;28;20021;-88
2023/05/29 05:35:31;;;;;;;10.25;4.30;;;14.10;99.90;;;;;;5058750;28;20210;-87
2023/05/29 05:38:00;;;;;;;9.40;4.63;;;14.10;99.90;;;;;;5058252;28;20021;-88
2023/05/29 05:40:30;;;;;;;6.85;4.43;;;14.20;99.90;;;;;;5076359;28;20020;-88
2023/05/29 05:43:02;;;;;;;9.85;4.00;;;14.20;99.90;;;;;;5062983;28;20044;-89
2023/05/29 05:45:50;;;;;;;11.38;5.05;;;14.30;99.90;;;;;;5079397;28;20508;-89
2023/05/29 05:48:16;;;;;;;10.98;4.82;;;14.30;99.90;;;;;;5061828;28;20052;-88
2023/05/29 05:50:42;;;;;;;10.32;4.53;;;14.40;99.90;;;;;;5061923;28;20115;-88
2023/05/29 05:53:08;;;;;;;6.70;4.32;;;14.50;99.90;;;;;;5061664;28;20502;-88
2023/05/29 05:55:34;;;;;;;10.18;4.55;;;14.50;99.90;;;;;;5079886;28;20052;-89
2023/05/29 05:58:00;;;;;;;7.47;4.70;;;14.60;99.90;;;;;;5071174;28;20032;-89
2023/05/29 06:00:26;;;;;;;8.57;4.78;;;14.70;99.90;;;;;;5061626;28;20017;-88
2023/05/29 06:02:55;;;;;;;13.38;4.93;;;14.70;99.90;;;;;;5078415;28;20021;-89
2023/05/29 06:05:38;;;;;;;9.40;4.28;;;14.80;99.90;;;;;;5070384;28;20031;-87
2023/05/29 06:08:05;;;;;;;7.82;4.47;;;14.90;99.90;;;;;;5061495;28;20085;-88
2023/05/29 06:10:32;;;;;;;11.55;5.47;;;15.00;99.90;;;;;;5051148;28;20052;-88
2023/05/29 06:12:57;;;;;;;8.02;4.97;;;15.10;99.90;;;;;;5070070;28;20063;-88
2023/05/29 06:15:29;;;;;;;;;;;15.20;99.90;;;;;;5082601;28;20020;-89
2023/05/29 06:17:55;;;;;;;9.95;4.82;;;15.40;99.90;;;;;;5076273;28;19943;-89
2023/05/29 06:20:23;;;;;;;8.88;4.40;;;15.50;99.90;;;;;;5105573;28;20035;-88
2023/05/29 06:22:50;;;;;;;10.75;4.38;;;15.60;99.90;;;;;;5075552;28;20025;-88
2023/05/29 06:25:20;;;;;;;10.40;4.05;;;15.70;99.90;;;;;;5057250;28;20020;-88
2023/05/29 06:27:46;;;;;;;7.18;4.22;;;15.80;99.90;;;;;;5068635;28;20060;-88
2023/05/29 06:30:12;;;;;;;10.10;4.72;;;15.90;99.90;;;;;;5065001;28;20471;-87
2023/05/29 06:32:38;;;;;;;7.82;4.45;;;16.00;99.90;;;;;;5068329;28;20109;-89
2023/05/29 06:35:07;;;;;;;11.38;4.53;;;16.10;99.90;;;;;;5072560;28;20028;-89
2023/05/29 06:37:33;;;;;;;9.38;4.15;;;16.10;99.90;;;;;;5060148;28;20054;-89
2023/05/29 06:39:58;;;;;;;9.93;4.15;;;16.20;99.90;;;;;;5054904;28;20020;-89
2023/05/29 06:42:24;;;;;;;10.13;4.43;;;16.20;99.90;;;;;;5070310;28;20013;-89
2023/05/29 06:44:57;;;;;;;9.02;4.18;;;16.30;99.90;;;;;;5067575;28;20055;-88
2023/05/29 06:47:23;;;;;;;7.25;4.00;;;16.40;99.90;;;;;;5056303;28;20024;-89
2023/05/29 06:49:49;;;;;;;7.22;4.07;;;16.50;99.90;;;;;;5052467;28;20098;-88
2023/05/29 06:52:15;;;;;;;7.13;3.85;;;16.60;99.90;;;;;;5048389;28;20020;-87
2023/05/29 06:54:59;;;;;;;11.85;4.47;;;16.70;99.90;;;;;;5076833;28;20056;-87
2023/05/29 06:57:26;;;;;;;11.60;5.57;;;16.80;99.90;;;;;;5054345;28;20059;-87
2023/05/29 06:59:51;;;;;;;10.32;4.78;;;16.80;99.90;;;;;;5048748;28;20071;-88
2023/05/29 07:02:17;;;;;;;8.73;3.67;;;16.90;99.90;;;;;;5042015;28;20396;-87
2023/05/29 07:04:48;;;;;;;9.60;4.35;;;16.90;99.90;;;;;;5069995;28;20024;-87
2023/05/29 07:07:14;;;;;;;10.90;4.10;;;17.00;99.90;;;;;;5091625;28;20135;-88
2023/05/29 07:09:40;;;;;;;17.92;4.75;;;17.00;99.90;;;;;;5103001;28;20021;-87
2023/05/29 07:12:06;;;;;;;8.90;4.40;;;17.20;99.90;;;;;;5074667;28;20055;-89
2023/05/29 07:14:31;;;;;;;9.65;4.28;;;17.30;99.90;;;;;;5073523;28;20111;-90
2023/05/29 07:16:57;;;;;;;10.02;4.18;;;17.40;99.90;;;;;;5095499;28;20086;-88
2023/05/29 07:19:23;;;;;;;10.15;3.65;;;17.40;99.90;;;;;;5116571;28;20036;-88
2023/05/29 07:21:50;;;;;;;10.77;4.10;;;17.50;99.90;;;;;;5091419;28;20468;-89
2023/05/29 07:24:18;;;;;;;10.13;3.72;;;17.60;99.90;;;;;;5062360;28;20016;-89
2023/05/29 07:26:44;;;;;;;8.20;4.43;;;17.90;99.90;;;;;;5086042;28;20032;-88
2023/05/29 07:29:11;;;;;;;8.75;4.22;;;18.60;99.90;;;;;;5059946;28;20106;-87
2023/05/29 07:31:40;;;;;;;8.88;4.20;;;19.20;99.90;;;;;;5076226;28;20019;-88
2023/05/29 07:34:06;;;;;;;8.57;4.15;;;19.20;99.90;;;;;;5066530;28;20059;-88
2023/05/29 07:36:32;;;;;;;8.82;4.38;;;19.10;99.90;;;;;;5055704;28;20032;-89
2023/05/29 07:38:59;;;;;;;13.00;4.30;;;18.90;99.90;;;;;;5060166;28;20048;-88
2023/05/29 07:41:26;;;;;;;15.40;4.30;;;18.80;99.90;;;;;;5065570;28;20461;-87
2023/05/29 07:43:53;;;;;;;12.80;4.40;;;18.80;99.90;;;;;;5051786;28;20033;-90
2023/05/29 07:46:20;;;;;;;8.88;4.47;;;18.80;99.90;;;;;;5057412;28;20077;-88
2023/05/29 07:48:48;;;;;;;7.53;3.65;;;18.90;99.90;;;;;;5053534;28;20041;-88
2023/05/29 07:51:15;;;;;;;10.25;3.95;;;19.10;99.90;;;;;;5073242;28;20028;-90
2023/05/29 07:53:46;;;;;;;12.52;3.95;;;20.20;98.60;;;;;;5101219;28;20038;-89
2023/05/29 07:56:12;;;;;;;8.10;3.92;;;22.00;96.10;;;;;;5054674;28;20020;-88
2023/05/29 07:58:40;;;;;;;12.75;3.92;;;23.30;92.10;;;;;;5052504;28;20464;-90
2023/05/29 08:01:05;;;;;;;7.25;4.03;;;24.20;90.00;;;;;;5060242;28;20027;-88
2023/05/29 08:03:38;;;;;;;10.13;4.20;;;24.80;82.30;;;;;;5059389;28;20033;-89
2023/05/29 08:06:23;;;;;;;7.93;4.03;;;25.10;77.40;;;;;;5057798;28;20044;-89
2023/05/29 08:08:50;;;;;;;7.95;3.63;;;25.90;76.00;;;;;;5061361;28;20105;-89
2023/05/29 08:11:16;;;;;;;9.40;3.92;;;26.20;74.50;;;;;;5080479;28;20012;-88
2023/05/29 08:13:42;;;;;;;9.82;3.70;;;25.80;72.20;;;;;;5064027;28;20088;-88
2023/05/29 08:16:08;;;;;;;4.50;3.75;;;26.40;71.60;;;;;;5068169;28;20024;-89
2023/05/29 08:18:35;;;;;;;8.13;3.85;;;26.80;69.00;;;;;;5057894;28;20028;-87
2023/05/29 08:21:00;;;;;;;11.68;4.15;;;26.70;68.50;;;;;;5071133;28;20040;-89
2023/05/29 08:23:26;;;;;;;5.90;3.50;;;26.40;68.40;;;;;;5057945;28;20029;-88
2023/05/29 08:25:52;;;;;;;10.60;3.97;;;26.20;66.80;;;;;;5058889;28;20369;-87
2023/05/29 08:28:18;;;;;;;6.13;3.50;;;26.00;67.70;;;;;;5073234;28;20107;-88
2023/05/29 08:30:44;;;;;;;7.75;3.95;;;25.80;66.80;;;;;;5058238;28;20432;-89
2023/05/29 08:33:10;;;;;;;8.65;4.40;;;25.60;68.00;;;;;;5075672;28;20376;-88
2023/05/29 08:35:37;;;;;;;14.27;3.97;;;26.30;66.20;;;;;;5066036;28;20058;-90
2023/05/29 08:38:02;;;;;;;12.77;3.85;;;27.00;66.20;;;;;;5075550;28;20032;-87
2023/05/29 08:40:28;;;;;;;9.32;4.10;;;27.30;64.00;;;;;;5057712;28;20051;-89
2023/05/29 08:42:59;;;;;;;5.78;3.88;;;26.30;63.20;;;;;;5063543;28;20439;-88
2023/05/29 08:45:25;;;;;;;;;;;26.60;64.60;;;;;;5075216;28;20029;-89
2023/05/29 08:47:54;;;;;;;8.25;4.10;;;26.20;63.80;;;;;;5074719;28;20381;-89
2023/05/29 08:50:21;;;;;;;12.00;4.00;;;25.80;64.40;;;;;;5058210;28;20025;-89
2023/05/29 08:52:47;;;;;;;10.18;3.70;;;25.60;65.70;;;;;;5057867;28;20028;-89
2023/05/29 08:55:13;;;;;;;14.88;4.47;;;25.60;65.40;;;;;;5057407;28;20537;-89
2023/05/29 08:57:40;;;;;;;8.48;3.60;;;26.10;64.30;;;;;;5055900;28;20024;-88
2023/05/29 09:00:12;;;;;;;9.98;4.10;;;26.30;62.50;;;;;;5057493;28;20033;-89
2023/05/29 09:02:45;;;;;;;10.75;4.00;;;26.20;64.20;;;;;;5074623;28;20036;-89
2023/05/29 09:05:12;;;;;;;5.38;3.47;;;25.80;62.80;;;;;;5058799;28;20294;-89
2023/05/29 09:07:39;;;;;;;6.35;3.47;;;25.40;66.90;;;;;;5058347;28;20074;-88
2023/05/29 09:10:11;;;;;;;10.93;3.70;;;25.50;66.60;;;;;;5057511;28;20392;-88
2023/05/29 09:12:37;;;;;;;5.82;3.65;;;26.00;66.70;;;;;;5057754;28;20120;-90
2023/05/29 09:15:07;;;;;;;8.93;3.78;;;25.60;67.30;;;;;;5059052;28;20066;-90
2023/05/29 09:17:34;;;;;;;7.05;3.90;;;26.20;66.00;;;;;;5066561;28;20379;-88
2023/05/29 09:20:00;;;;;;;7.82;3.92;;;26.30;65.60;;;;;;5063654;28;20040;-88
2023/05/29 09:22:26;;;;;;;7.10;3.72;;;26.40;65.20;;;;;;5062016;28;20036;-89
2023/05/29 09:24:52;;;;;;;7.28;4.03;;;26.60;64.40;;;;;;5078454;28;20025;-87
2023/05/29 09:27:18;;;;;;;8.80;3.50;;;26.50;64.70;;;;;;5062085;28;20029;-88
2023/05/29 09:29:45;;;;;;;12.70;3.90;;;27.20;65.30;;;;;;5061122;28;20959;-88
2023/05/29 09:32:19;;;;;;;8.73;3.90;;;27.60;61.50;;;;;;5065409;28;20467;-87
2023/05/29 09:34:46;;;;;;;7.25;3.75;;;27.70;61.60;;;;;;5061897;28;20033;-89
2023/05/29 09:37:13;;;;;;;5.90;4.07;;;27.30;61.80;;;;;;5062817;28;20055;-89
2023/05/29 09:39:42;;;;;;;11.43;3.65;;;27.40;65.30;;;;;;5074230;28;20107;-90
2023/05/29 09:42:11;;;;;;;7.72;3.67;;;26.90;64.90;;;;;;5088468;28;20483;-88
2023/05/29 09:44:37;;;;;;;8.38;4.55;;;26.80;64.70;;;;;;5068556;28;20024;-89
2023/05/29 09:47:03;;;;;;;9.20;3.40;;;27.70;62.60;;;;;;5093490;28;20383;-89
2023/05/29 09:49:31;;;;;;;11.02;3.58;;;28.20;62.50;;;;;;5079497;28;20422;-88
2023/05/29 09:51:59;;;;;;;8.75;4.07;;;29.00;59.70;;;;;;5094210;28;20025;-89
2023/05/29 09:54:30;;;;;;;9.32;3.50;;;29.20;57.80;;;;;;5056197;28;20029;-88
2023/05/29 09:56:57;;;;;;;9.48;4.15;;;28.50;57.40;;;;;;5056713;28;20369;-88
2023/05/29 09:59:24;;;;;;;9.13;4.03;;;27.60;58.70;;;;;;5077374;28;20059;-88
2023/05/29 10:02:03;;;;;;;10.45;4.18;;;27.30;59.80;;;;;;5054471;28;20032;-89
2023/05/29 10:04:33;;;;;;;9.25;4.10;;;26.60;59.30;;;;;;5071384;28;20376;-88
2023/05/29 10:07:05;;;;;;;6.18;3.97;;;26.50;61.20;;;;;;5051666;28;20025;-88
2023/05/29 10:09:33;;;;;;;11.35;3.78;;;26.60;59.00;;;;;;5049122;28;20472;-88
2023/05/29 10:12:04;;;;;;;8.25;4.05;;;26.40;60.50;;;;;;5056403;28;20020;-88
2023/05/29 10:14:32;;;;;;;9.35;3.40;;;26.60;60.90;;;;;;5050710;28;20032;-89
2023/05/29 10:17:03;;;;;;;11.25;3.90;;;26.40;61.30;;;;;;5072548;28;20043;-88
2023/05/29 10:19:31;;;;;;;7.40;4.35;;;25.90;62.10;;;;;;5056071;28;20025;-88
2023/05/29 10:22:19;;;;;;;13.18;4.13;;;25.60;61.20;;;;;;5120667;27;20046;-88
2023/05/29 10:24:48;;;;;;;6.82;3.88;;;25.50;61.70;;;;;;5076568;28;20052;-88
2023/05/29 10:27:14;;;;;;;8.23;4.82;;;25.50;63.50;;;;;;5076308;28;20035;-89
2023/05/29 10:29:58;;;;;;;10.73;5.40;;;25.50;63.10;;;;;;5060365;28;20479;-89
2023/05/29 10:32:41;;;;;;;8.73;4.40;;;25.20;63.90;;;;;;5094221;28;20192;-89
2023/05/29 10:35:38;;;;;;;9.45;4.32;;;25.00;64.40;;;;;;5060552;28;20024;-88
2023/05/29 10:38:16;;;;;;;10.52;6.68;;;24.90;65.60;;;;;;5092399;28;20033;-88
2023/05/29 10:40:45;;;;;;;8.77;4.60;;;25.40;65.00;;;;;;5060674;28;20093;-87
2023/05/29 10:43:39;;;;;;;6.22;4.10;;;25.30;64.70;;;;;;5078825;28;20025;-88
2023/05/29 10:46:05;;;;;;;5.68;3.72;;;25.40;63.00;;;;;;5057984;28;20051;-88
2023/05/29 10:48:38;;;;;;;7.32;3.63;;;25.70;61.50;;;;;;5077529;28;20383;-89
2023/05/29 10:51:08;;;;;;;6.03;3.80;;;25.90;61.30;;;;;;5059848;28;20028;-89
2023/05/29 10:53:34;;;;;;;6.82;3.80;;;26.10;61.80;;;;;;5059926;28;20029;-88
2023/05/29 10:56:04;;;;;;;10.15;3.90;;;26.20;61.60;;;;;;5059382;28;20031;-89
2023/05/29 10:58:30;;;;;;;6.77;4.20;;;26.30;59.30;;;;;;5060063;28;20029;-88
2023/05/29 11:00:58;;;;;;;5.68;3.70;;;25.60;59.20;;;;;;5076045;28;20040;-89
2023/05/29 11:03:29;;;;;;;11.43;4.15;;;25.70;59.80;;;;;;5059625;28;20032;-89
2023/05/29 11:06:00;;;;;;;7.10;3.55;;;25.70;61.60;;;;;;5110340;28;20028;-88
2023/05/29 11:08:42;;;;;;;9.57;3.85;;;26.20;59.40;;;;;;5075764;28;20104;-89
2023/05/29 11:11:11;;;;;;;13.77;4.35;;;26.70;58.80;;;;;;5076246;28;20024;-89
2023/05/29 11:13:38;;;;;;;16.35;3.50;;;27.20;59.30;;;;;;5059552;28;20028;-89
2023/05/29 11:16:12;;;;;;;5.15;3.47;;;27.20;58.20;;;;;;5077158;28;20071;-89
2023/05/29 11:18:48;;;;;;;6.22;3.53;;;26.40;58.60;;;;;;5059099;28;20025;-88
2023/05/29 11:21:29;;;;;;;4.57;3.45;;;26.40;60.70;;;;;;5075511;28;20487;-89
2023/05/29 11:24:07;;;;;;;9.75;3.97;;;26.80;57.20;;;;;;5107217;28;20377;-84
2023/05/29 11:26:36;;;;;;;8.73;3.35;;;27.00;57.50;;;;;;5072954;28;20108;-84
2023/05/29 11:29:10;;;;;;;8.52;4.05;;;26.80;57.60;;;;;;5056215;28;20420;-83
2023/05/29 11:31:37;;;;;;;11.23;4.00;;;26.50;57.60;;;;;;5048868;28;20032;-83
2023/05/29 11:34:05;;;;;;;11.02;3.78;;;26.60;58.40;;;;;;5086150;28;20088;-84
2023/05/29 11:36:34;;;;;;;5.75;3.75;;;26.70;57.60;;;;;;5068772;28;20351;-84
2023/05/29 11:39:01;;;;;;;7.95;3.60;;;26.80;58.50;;;;;;5073418;28;20484;-84
2023/05/29 11:41:27;;;;;;;9.63;3.75;;;26.90;57.60;;;;;;5056866;28;20024;-84
2023/05/29 11:44:05;;;;;;;6.43;3.83;;;27.00;57.30;;;;;;5068615;28;20037;-85
2023/05/29 11:46:32;;;;;;;6.25;3.80;;;26.60;56.20;;;;;;5067569;28;20020;-84
2023/05/29 11:48:59;;;;;;;11.73;3.80;;;26.20;57.40;;;;;;5058523;28;20035;-84
2023/05/29 11:51:25;;;;;;;10.73;4.20;;;26.00;57.20;;;;;;5069160;28;20032;-84
2023/05/29 11:53:57;;;;;;;5.55;3.78;;;25.60;59.00;;;;;;5059357;28;20036;-84
2023/05/29 11:56:27;;;;;;;7.07;3.75;;;25.50;58.60;;;;;;5055086;28;20067;-84
2023/05/29 11:58:59;;;;;;;7.85;3.90;;;25.70;58.50;;;;;;5076291;28;20084;-84
2023/05/29 12:01:26;;;;;;;11.57;3.70;;;25.50;58.10;;;;;;5092066;28;20467;-84
2023/05/29 12:03:53;;;;;;;7.28;3.67;;;25.50;57.20;;;;;;5067820;28;20047;-84
2023/05/29 12:06:38;;;;;;;8.35;3.83;;;25.50;59.30;;;;;;5056679;28;20021;-84
2023/05/29 12:09:04;;;;;;;6.60;3.67;;;25.40;57.70;;;;;;5079019;28;20035;-84
2023/05/29 12:11:31;;;;;;;14.32;4.05;;;25.40;58.30;;;;;;5064714;28;20074;-84
2023/05/29 12:14:00;;;;;;;9.90;3.72;;;25.40;57.50;;;;;;5051020;28;20387;-84
2023/05/29 12:16:28;;;;;;;8.93;3.70;;;25.60;58.00;;;;;;5053095;28;20020;-85
2023/05/29 12:18:55;;;;;;;9.40;3.92;;;25.50;57.20;;;;;;5073426;28;20029;-85
2023/05/29 12:21:22;;;;;;;8.30;3.10;;;25.70;57.60;;;;;;5077117;28;20031;-84
2023/05/29 12:23:47;;;;;;;8.43;3.47;;;26.10;57.30;;;;;;5103046;27;20029;-84
2023/05/29 12:26:15;;;;;;;8.23;3.75;;;26.10;55.90;;;;;;5095566;27;20124;-85
2023/05/29 12:28:48;;;;;;;8.85;3.78;;;26.40;58.30;;;;;;5059419;28;20416;-84
2023/05/29 12:31:14;;;;;;;6.32;3.45;;;26.80;57.00;;;;;;5052093;28;20658;-85
2023/05/29 12:33:43;;;;;;;9.50;3.60;;;27.10;56.50;;;;;;5060167;28;20034;-85
2023/05/29 12:36:12;;;;;;;4.93;3.15;;;27.60;55.50;;;;;;5076258;28;20032;-85
2023/05/29 12:38:52;;;;;;;8.80;3.85;;;27.50;55.50;;;;;;5061261;28;20043;-85
2023/05/29 12:41:26;;;;;;;6.03;3.90;;;27.50;55.60;;;;;;5076786;28;20040;-84
2023/05/29 12:43:57;;;;;;;7.03;3.90;;;27.50;55.30;;;;;;5066787;28;20476;-85
2023/05/29 12:46:27;;;;;;;6.32;3.17;;;27.30;54.30;;;;;;5070116;28;20019;-85
2023/05/29 12:48:56;;;;;;;6.20;3.30;;;27.60;54.80;;;;;;5067933;28;20548;-85